createdAt,value
2023-03-02T00:05:47.832Z,19.50
2023-03-02T00:20:52.287Z,21.00
2023-03-02T00:35:56.708Z,19.73
2023-03-02T00:51:03.231Z,20.27
2023-03-02T01:06:15.846Z,20.60
2023-03-02T01:21:20.469Z,20.60
2023-03-02T01:36:25.122Z,22.40
2023-03-02T01:51:33.160Z,21.47
2023-03-02T02:06:40.793Z,20.73
2023-03-02T02:21:45.589Z,22.00
2023-03-02T02:36:53.962Z,22.53
2023-03-02T02:51:59.373Z,22.77
2023-03-02T03:07:07.860Z,22.37
2023-03-02T03:22:13.942Z,24.17
2023-03-02T03:37:20.554Z,23.67
2023-03-02T03:52:30.621Z,22.80
2023-03-02T04:07:43.192Z,24.90
2023-03-02T04:22:50.073Z,21.40
2023-03-02T04:37:54.810Z,22.80
2023-03-02T04:52:59.468Z,22.43
2023-03-02T05:08:04.081Z,22.73
2023-03-02T05:23:10.682Z,22.30
2023-03-02T05:38:15.262Z,23.33
2023-03-02T05:53:19.851Z,22.53
2023-03-02T06:08:24.443Z,23.77
2023-03-02T06:23:28.936Z,23.40
2023-03-02T06:38:33.370Z,23.67
2023-03-02T06:53:38.167Z,23.60
2023-03-02T07:08:42.672Z,23.23
2023-03-02T07:23:47.140Z,24.70
2023-03-02T07:38:51.669Z,26.80
2023-03-02T07:53:56.099Z,28.53
2023-03-02T08:09:02.574Z,28.07
2023-03-02T08:24:07.648Z,26.90
2023-03-02T08:39:12.332Z,24.80
2023-03-02T08:54:17.170Z,26.63
2023-03-02T09:09:21.624Z,27.53
2023-03-02T09:24:26.013Z,62.77
2023-03-02T09:39:30.464Z,23.93
2023-03-02T09:54:37.896Z,24.70
2023-03-02T10:09:43.731Z,23.40
2023-03-02T10:24:58.301Z,26.33
2023-03-02T10:40:02.881Z,24.43
2023-03-02T10:55:14.417Z,23.60
2023-03-02T11:10:23.568Z,23.47
2023-03-02T11:25:34.294Z,22.73
2023-03-02T11:40:47.229Z,20.23
2023-03-02T11:55:51.820Z,24.23
2023-03-02T12:11:04.375Z,22.83
2023-03-02T12:26:26.138Z,22.97
2023-03-02T12:41:52.926Z,21.20
2023-03-02T12:57:16.771Z,22.37
2023-03-02T13:12:21.376Z,22.40
2023-03-02T13:27:27.212Z,21.20
2023-03-02T13:42:38.433Z,22.23
2023-03-02T13:57:45.288Z,20.13
2023-03-02T14:12:57.049Z,20.97
2023-03-02T14:28:01.535Z,18.83
2023-03-02T14:43:06.216Z,20.17
2023-03-02T14:58:15.950Z,19.17
2023-03-02T15:13:20.465Z,18.87
2023-03-02T15:28:24.896Z,18.33
2023-03-02T15:43:29.289Z,19.37
2023-03-02T15:58:34.218Z,19.47
2023-03-02T16:13:39.236Z,18.40
2023-03-02T16:28:43.773Z,18.00
2023-03-02T16:43:50.513Z,19.53
2023-03-02T16:58:55.668Z,26.63
2023-03-02T17:14:00.294Z,22.10
2023-03-02T17:29:05.008Z,22.07
2023-03-02T17:44:09.399Z,23.87
2023-03-02T18:14:20.784Z,23.23
2023-03-02T18:29:25.212Z,21.47
2023-03-02T18:44:31.078Z,22.17
2023-03-02T18:59:36.552Z,22.13
2023-03-02T19:14:42.722Z,22.00
2023-03-02T19:29:47.436Z,24.53
2023-03-02T19:44:52.193Z,26.80
2023-03-02T19:59:57.321Z,28.13
2023-03-02T20:15:02.913Z,29.03
2023-03-02T20:30:14.683Z,35.53
2023-03-02T20:45:19.514Z,32.30
2023-03-02T21:00:26.710Z,38.00
2023-03-02T21:15:31.208Z,51.53
2023-03-02T21:30:36.791Z,43.13
2023-03-02T21:45:42.056Z,45.73
2023-03-02T22:00:46.755Z,39.23
2023-03-02T22:16:12.361Z,35.53
2023-03-02T22:31:20.969Z,35.33
2023-03-02T22:46:27.135Z,35.83
2023-03-02T23:01:40.191Z,36.37
2023-03-02T23:16:44.778Z,35.80
2023-03-02T23:31:50.164Z,36.17
2023-03-02T23:46:54.696Z,38.13
